createdAt,value
2023-05-05T00:02:26.474Z,14.04
2023-05-05T00:04:53.295Z,14.06
2023-05-05T00:07:19.840Z,13.87
2023-05-05T00:09:46.367Z,13.52
2023-05-05T00:12:12.962Z,13.56
2023-05-05T00:14:39.454Z,13.65
2023-05-05T00:17:06.057Z,13.72
2023-05-05T00:19:32.697Z,13.84
2023-05-05T00:21:59.359Z,13.71
2023-05-05T00:24:25.906Z,13.81
2023-05-05T00:26:52.471Z,13.89
2023-05-05T00:29:19.022Z,13.79
2023-05-05T00:31:45.504Z,13.80
2023-05-05T00:34:12.008Z,13.71
2023-05-05T00:36:38.630Z,13.84
2023-05-05T00:39:05.164Z,13.90
2023-05-05T00:41:31.691Z,13.86
2023-05-05T00:43:58.210Z,13.95
2023-05-05T00:46:28.058Z,13.95
2023-05-05T00:48:55.280Z,13.76
2023-05-05T00:51:22.791Z,13.87
2023-05-05T00:53:49.957Z,13.95
2023-05-05T00:56:22.109Z,14.16
2023-05-05T00:58:49.388Z,14.03
2023-05-05T01:01:16.726Z,14.17
2023-05-05T01:03:43.577Z,14.06
2023-05-05T01:06:23.023Z,14.27
2023-05-05T01:09:05.982Z,14.27
2023-05-05T01:11:51.708Z,14.14
2023-05-05T01:14:24.514Z,14.26
2023-05-05T01:16:59.346Z,14.10
2023-05-05T01:19:44.717Z,14.26
2023-05-05T01:22:15.142Z,14.23
2023-05-05T01:25:27.056Z,14.22
2023-05-05T01:28:24.538Z,14.51
2023-05-05T01:31:09.413Z,14.55
2023-05-05T01:33:49.674Z,14.61
2023-05-05T01:36:25.998Z,14.44
2023-05-05T01:38:58.110Z,14.33
2023-05-05T01:41:30.322Z,14.36
2023-05-05T01:43:59.193Z,14.20
2023-05-05T01:46:27.135Z,14.13
2023-05-05T01:48:56.804Z,14.29
2023-05-05T01:51:24.804Z,14.44
2023-05-05T01:53:58.509Z,14.19
2023-05-05T01:56:26.430Z,14.33
2023-05-05T01:58:54.692Z,14.37
2023-05-05T02:01:24.311Z,14.41
2023-05-05T02:03:52.548Z,14.48
2023-05-05T02:06:21.653Z,14.42
2023-05-05T02:08:50.090Z,14.60
2023-05-05T02:11:17.919Z,14.66
2023-05-05T02:13:46.396Z,14.65
2023-05-05T02:16:13.924Z,14.65
2023-05-05T02:18:42.441Z,14.58
2023-05-05T02:21:09.601Z,14.56
2023-05-05T02:23:36.437Z,14.76
2023-05-05T02:26:07.090Z,14.61
2023-05-05T02:28:42.135Z,14.56
2023-05-05T02:31:10.964Z,14.54
2023-05-05T02:33:39.299Z,14.56
2023-05-05T02:36:14.765Z,14.66
2023-05-05T02:38:44.954Z,14.64
2023-05-05T02:41:16.725Z,14.66
2023-05-05T02:43:45.002Z,14.72
2023-05-05T02:46:11.704Z,14.71
2023-05-05T02:48:38.297Z,14.72
2023-05-05T02:51:05.854Z,14.76
2023-05-05T02:53:32.605Z,14.78
2023-05-05T02:56:17.989Z,14.74
2023-05-05T02:59:07.778Z,14.67
2023-05-05T03:01:47.872Z,14.68
2023-05-05T03:04:25.126Z,14.69
2023-05-05T03:06:57.454Z,14.67
2023-05-05T03:09:36.957Z,14.65
2023-05-05T03:12:10.073Z,14.59
2023-05-05T03:14:41.594Z,14.56
2023-05-05T03:17:12.748Z,14.70
2023-05-05T03:19:42.147Z,14.83
2023-05-05T03:22:08.970Z,14.71
2023-05-05T03:24:35.539Z,14.77
2023-05-05T03:27:02.870Z,14.87
2023-05-05T03:29:30.218Z,14.70
2023-05-05T03:31:56.821Z,14.75
2023-05-05T03:34:23.496Z,14.80
2023-05-05T03:36:50.138Z,14.85
2023-05-05T03:39:17.095Z,14.83
2023-05-05T03:41:43.662Z,14.64
2023-05-05T03:44:10.591Z,14.63
2023-05-05T03:46:37.151Z,14.38
2023-05-05T03:49:03.739Z,14.40
2023-05-05T03:51:31.510Z,14.34
2023-05-05T03:53:57.997Z,14.36
2023-05-05T03:56:24.548Z,14.40
2023-05-05T03:58:51.109Z,14.41
2023-05-05T04:01:17.635Z,14.52
2023-05-05T04:03:44.349Z,14.31
2023-05-05T04:06:11.585Z,14.25
2023-05-05T04:08:38.117Z,14.31
2023-05-05T04:11:04.725Z,14.30
2023-05-05T04:13:31.429Z,14.29
2023-05-05T04:15:59.813Z,14.35
2023-05-05T04:18:26.454Z,14.25
2023-05-05T04:20:53.146Z,14.27
2023-05-05T04:23:19.763Z,14.27
2023-05-05T04:25:46.507Z,14.11
2023-05-05T04:28:13.049Z,14.43
2023-05-05T04:30:39.963Z,14.50
2023-05-05T04:33:06.573Z,14.35
2023-05-05T04:35:33.195Z,14.35
2023-05-05T04:37:59.853Z,14.50
2023-05-05T04:40:26.845Z,14.67
2023-05-05T04:42:53.484Z,14.71
2023-05-05T04:45:20.142Z,14.79
2023-05-05T04:47:46.793Z,14.86
2023-05-05T04:50:13.814Z,14.87
2023-05-05T04:52:40.416Z,15.02
2023-05-05T04:55:09.080Z,15.06
2023-05-05T04:57:35.715Z,15.12
2023-05-05T05:00:04.751Z,15.21
2023-05-05T05:02:31.455Z,15.38
2023-05-05T05:04:58.244Z,15.36
2023-05-05T05:07:24.867Z,15.51
2023-05-05T05:09:51.607Z,15.52
2023-05-05T05:12:18.172Z,15.60
2023-05-05T05:14:44.764Z,15.76
2023-05-05T05:17:11.539Z,15.91
2023-05-05T05:19:38.054Z,16.04
2023-05-05T05:22:04.728Z,16.06
2023-05-05T05:24:31.258Z,16.15
2023-05-05T05:26:58.675Z,16.23
2023-05-05T05:29:25.442Z,15.82
2023-05-05T05:31:52.115Z,16.26
2023-05-05T05:34:18.674Z,16.42
2023-05-05T05:36:45.173Z,16.55
2023-05-05T05:39:11.684Z,16.64
2023-05-05T05:41:38.252Z,16.93
2023-05-05T05:44:05.030Z,17.21
2023-05-05T05:46:31.600Z,17.09
2023-05-05T05:48:58.307Z,17.05
2023-05-05T05:51:24.873Z,17.11
2023-05-05T05:53:51.917Z,17.13
2023-05-05T05:56:18.445Z,17.28
2023-05-05T05:58:45.370Z,17.27
2023-05-05T06:01:12.125Z,17.37
2023-05-05T06:03:38.805Z,17.50
2023-05-05T06:06:05.782Z,17.49
2023-05-05T06:08:32.442Z,17.28
2023-05-05T06:11:00.622Z,17.11
2023-05-05T06:13:27.471Z,17.05
2023-05-05T06:15:54.060Z,17.12
2023-05-05T06:18:20.700Z,16.95
2023-05-05T06:20:51.092Z,16.98
2023-05-05T06:23:18.244Z,17.13
2023-05-05T06:25:44.906Z,17.20
2023-05-05T06:28:11.640Z,17.23
2023-05-05T06:30:38.306Z,17.47
2023-05-05T06:33:04.981Z,17.55
2023-05-05T06:35:32.053Z,17.77
2023-05-05T06:37:58.638Z,17.98
2023-05-05T06:40:25.514Z,18.34
2023-05-05T06:42:52.241Z,18.45
2023-05-05T06:45:18.911Z,18.67
2023-05-05T06:47:45.540Z,18.69
2023-05-05T06:50:12.300Z,18.79
2023-05-05T06:52:38.880Z,18.83
2023-05-05T06:55:05.964Z,19.07
2023-05-05T06:57:32.551Z,19.27
2023-05-05T06:59:59.154Z,19.12
2023-05-05T07:02:26.973Z,19.16
2023-05-05T07:04:55.415Z,19.28
2023-05-05T07:07:22.151Z,19.63
2023-05-05T07:09:48.713Z,19.52
2023-05-05T07:12:15.348Z,19.24
2023-05-05T07:14:42.158Z,19.37
2023-05-05T07:17:08.730Z,19.53
2023-05-05T07:19:35.283Z,19.29
2023-05-05T07:22:01.867Z,19.38
2023-05-05T07:24:28.403Z,19.52
2023-05-05T07:26:55.096Z,19.47
2023-05-05T07:29:21.755Z,19.49
2023-05-05T07:31:48.515Z,19.78
2023-05-05T07:34:15.131Z,20.14
2023-05-05T07:36:42.073Z,20.29
2023-05-05T07:39:08.683Z,20.41
2023-05-05T07:41:35.261Z,20.21
2023-05-05T07:44:01.810Z,20.49
2023-05-05T07:46:28.405Z,20.44
2023-05-05T07:48:55.060Z,20.57
2023-05-05T07:51:21.634Z,20.90
2023-05-05T07:53:48.186Z,21.01
2023-05-05T07:56:14.805Z,20.92
2023-05-05T07:58:42.307Z,21.26
2023-05-05T08:01:11.135Z,21.35
2023-05-05T08:03:38.119Z,21.14
2023-05-05T08:06:10.568Z,21.27
2023-05-05T08:08:37.453Z,21.68
2023-05-05T08:11:06.429Z,21.71
2023-05-05T08:13:33.096Z,22.13
2023-05-05T08:15:59.759Z,22.14
2023-05-05T08:18:26.632Z,22.03
2023-05-05T08:20:54.668Z,21.88
2023-05-05T08:23:21.597Z,22.02
2023-05-05T08:25:48.229Z,21.89
2023-05-05T08:28:14.757Z,22.28
2023-05-05T08:30:41.813Z,22.52
2023-05-05T08:33:08.527Z,22.36
2023-05-05T08:35:35.253Z,21.81
2023-05-05T08:38:02.095Z,21.72
2023-05-05T08:40:33.887Z,21.63
2023-05-05T08:43:01.428Z,21.34
2023-05-05T08:45:31.439Z,21.99
2023-05-05T08:48:01.754Z,21.85
2023-05-05T08:50:30.042Z,21.83
2023-05-05T08:53:11.593Z,22.22
2023-05-05T08:55:50.461Z,22.42
2023-05-05T08:58:19.340Z,22.39
2023-05-05T09:00:46.463Z,22.95
2023-05-05T09:03:13.510Z,23.48
2023-05-05T09:05:42.678Z,23.45
2023-05-05T09:08:11.466Z,23.63
2023-05-05T09:10:41.773Z,22.99
2023-05-05T09:13:08.697Z,23.22
2023-05-05T09:15:35.262Z,22.93
2023-05-05T09:18:02.455Z,22.81
2023-05-05T09:20:39.900Z,22.86
2023-05-05T09:23:14.547Z,23.07
2023-05-05T09:25:43.546Z,23.23
2023-05-05T09:28:12.326Z,23.30
2023-05-05T09:30:40.218Z,23.05
2023-05-05T09:33:07.151Z,22.82
2023-05-05T09:35:55.756Z,23.06
2023-05-05T09:38:24.085Z,22.97
2023-05-05T09:40:52.808Z,22.46
2023-05-05T09:43:21.637Z,22.76
2023-05-05T09:45:49.083Z,22.90
2023-05-05T09:48:29.029Z,22.52
2023-05-05T09:50:56.776Z,22.89
2023-05-05T09:53:24.545Z,22.69
2023-05-05T09:55:58.562Z,22.86
2023-05-05T09:58:29.926Z,22.94
2023-05-05T10:00:58.258Z,22.70
2023-05-05T10:03:25.760Z,23.00
2023-05-05T10:05:55.733Z,23.34
2023-05-05T10:08:26.596Z,22.94
2023-05-05T10:11:06.491Z,22.89
2023-05-05T10:13:37.497Z,23.42
2023-05-05T10:16:07.266Z,23.40
2023-05-05T10:18:34.892Z,23.25
2023-05-05T10:21:03.962Z,23.25
2023-05-05T10:23:41.636Z,23.52
2023-05-05T10:26:13.432Z,23.92
2023-05-05T10:29:04.121Z,23.87
2023-05-05T10:31:41.850Z,23.91
2023-05-05T10:34:19.028Z,24.34
2023-05-05T10:36:45.891Z,24.53
2023-05-05T10:39:16.281Z,24.89
2023-05-05T10:41:44.171Z,25.17
2023-05-05T10:44:11.613Z,25.11
2023-05-05T10:46:39.107Z,24.75
2023-05-05T10:49:17.746Z,24.60
2023-05-05T10:52:00.118Z,24.39
2023-05-05T10:54:45.275Z,24.36
2023-05-05T10:57:12.438Z,25.23
2023-05-05T10:59:40.902Z,25.34
2023-05-05T11:02:30.143Z,24.92
2023-05-05T11:05:23.311Z,24.79
2023-05-05T11:07:51.812Z,24.54
2023-05-05T11:10:20.788Z,24.84
2023-05-05T11:13:00.299Z,24.94
2023-05-05T11:15:37.350Z,24.98
2023-05-05T11:18:07.495Z,24.66
2023-05-05T11:20:39.645Z,24.95
2023-05-05T11:23:06.360Z,25.09
2023-05-05T11:25:42.051Z,24.39
2023-05-05T11:28:10.799Z,24.62
2023-05-05T11:30:59.400Z,24.94
2023-05-05T11:33:33.522Z,24.80
2023-05-05T11:36:06.704Z,25.21
2023-05-05T11:38:36.577Z,25.16
2023-05-05T11:41:10.075Z,25.12
2023-05-05T11:43:37.009Z,25.34
2023-05-05T11:46:13.637Z,25.39
2023-05-05T11:48:47.863Z,25.65
2023-05-05T11:51:18.735Z,24.74
2023-05-05T11:53:49.804Z,25.05
2023-05-05T11:56:21.960Z,24.80
2023-05-05T11:59:04.575Z,24.84
2023-05-05T12:01:31.200Z,25.00
2023-05-05T12:03:58.049Z,24.95
2023-05-05T12:06:24.842Z,24.94
2023-05-05T12:08:51.553Z,24.96
2023-05-05T12:11:18.686Z,24.77
2023-05-05T12:13:46.406Z,24.75
2023-05-05T12:16:16.871Z,24.92
2023-05-05T12:18:43.502Z,24.89
2023-05-05T12:21:20.558Z,25.06
2023-05-05T12:23:47.109Z,25.43
2023-05-05T12:26:31.017Z,25.48
2023-05-05T12:29:01.317Z,25.58
2023-05-05T12:31:41.802Z,25.08
2023-05-05T12:34:10.295Z,24.90
2023-05-05T12:36:37.619Z,25.53
2023-05-05T12:39:07.584Z,24.91
2023-05-05T12:41:34.500Z,24.76
2023-05-05T12:44:03.198Z,25.05
2023-05-05T12:46:31.076Z,25.69
2023-05-05T12:49:05.943Z,25.73
2023-05-05T12:51:34.166Z,25.86
2023-05-05T12:54:08.185Z,26.10
2023-05-05T12:56:45.993Z,26.29
2023-05-05T12:59:21.854Z,25.94
2023-05-05T13:01:54.678Z,26.23
2023-05-05T13:04:27.941Z,26.85
2023-05-05T13:07:13.646Z,26.31
2023-05-05T13:09:40.737Z,26.09
2023-05-05T13:12:13.858Z,25.38
2023-05-05T13:14:41.549Z,25.98
2023-05-05T13:17:08.489Z,25.53
2023-05-05T13:19:42.449Z,25.44
2023-05-05T13:22:13.032Z,24.92
2023-05-05T13:24:50.719Z,24.73
2023-05-05T13:27:18.980Z,24.54
2023-05-05T13:29:46.114Z,24.05
2023-05-05T13:32:12.822Z,24.22
2023-05-05T13:34:39.638Z,23.60
2023-05-05T13:37:06.538Z,23.64
2023-05-05T13:39:33.207Z,23.70
2023-05-05T13:41:59.735Z,23.98
2023-05-05T13:44:26.331Z,23.85
2023-05-05T13:46:53.102Z,23.76
2023-05-05T13:49:20.214Z,24.61
2023-05-05T13:51:47.306Z,24.77
2023-05-05T13:54:14.000Z,24.61
2023-05-05T13:56:40.790Z,23.66
2023-05-05T13:59:07.495Z,23.30
2023-05-05T14:01:34.213Z,22.85
2023-05-05T14:04:03.554Z,22.91
2023-05-05T14:06:31.640Z,22.43
2023-05-05T14:08:58.248Z,22.45
2023-05-05T14:11:24.851Z,21.82
2023-05-05T14:13:52.002Z,21.84
2023-05-05T14:16:18.820Z,21.71
2023-05-05T14:18:45.703Z,21.70
2023-05-05T14:21:12.311Z,22.11
2023-05-05T14:23:38.952Z,21.90
2023-05-05T14:26:05.583Z,22.03
2023-05-05T14:28:32.234Z,21.59
2023-05-05T14:30:58.912Z,21.25
2023-05-05T14:33:25.535Z,20.91
2023-05-05T14:35:52.346Z,20.89
2023-05-05T14:38:19.158Z,20.85
2023-05-05T14:40:45.759Z,20.87
2023-05-05T14:43:12.359Z,21.47
2023-05-05T14:45:38.989Z,21.91
2023-05-05T14:48:05.821Z,21.85
2023-05-05T14:50:32.521Z,22.09
2023-05-05T14:52:59.060Z,22.72
2023-05-05T14:55:26.120Z,24.59
2023-05-05T14:57:52.755Z,26.22
2023-05-05T15:00:19.601Z,26.59
2023-05-05T15:02:48.150Z,26.76
2023-05-05T15:05:15.159Z,25.64
2023-05-05T15:07:42.030Z,24.28
2023-05-05T15:10:08.929Z,23.67
2023-05-05T15:12:35.520Z,23.36
2023-05-05T15:15:02.196Z,23.70
2023-05-05T15:17:30.734Z,25.35
2023-05-05T15:19:57.580Z,25.71
2023-05-05T15:22:24.132Z,25.71
2023-05-05T15:24:50.686Z,25.70
2023-05-05T15:27:18.302Z,26.36
2023-05-05T15:29:45.256Z,26.93
2023-05-05T15:32:11.995Z,26.73
2023-05-05T15:34:38.585Z,25.27
2023-05-05T15:37:05.445Z,24.56
2023-05-05T15:39:32.060Z,24.76
2023-05-05T15:42:00.408Z,24.35
2023-05-05T15:44:26.978Z,24.55
2023-05-05T15:46:53.706Z,24.76
2023-05-05T15:49:20.395Z,24.81
2023-05-05T15:51:48.408Z,24.33
2023-05-05T15:54:14.947Z,24.87
2023-05-05T15:56:41.594Z,23.94
2023-05-05T15:59:08.182Z,24.31
2023-05-05T16:01:36.332Z,24.56
2023-05-05T16:04:03.640Z,24.84
2023-05-05T16:06:30.610Z,25.41
2023-05-05T16:08:58.630Z,25.10
2023-05-05T16:11:26.523Z,25.17
2023-05-05T16:13:53.502Z,24.42
2023-05-05T16:16:20.257Z,25.55
2023-05-05T16:18:47.029Z,27.07
2023-05-05T16:21:13.671Z,25.93
2023-05-05T16:23:40.331Z,25.51
2023-05-05T16:26:07.007Z,27.38
2023-05-05T16:28:34.364Z,26.18
2023-05-05T16:31:02.327Z,24.89
2023-05-05T16:33:29.291Z,24.64
2023-05-05T16:35:56.265Z,23.99
2023-05-05T16:38:23.127Z,23.63
2023-05-05T16:40:49.693Z,23.52
2023-05-05T16:43:16.309Z,23.08
2023-05-05T16:45:43.546Z,22.42
2023-05-05T16:48:10.180Z,22.05
2023-05-05T16:50:36.752Z,22.02
2023-05-05T16:53:03.286Z,21.57
2023-05-05T16:55:30.195Z,21.55
2023-05-05T16:57:56.945Z,21.68
2023-05-05T17:00:23.480Z,21.32
2023-05-05T17:02:50.216Z,21.30
2023-05-05T17:05:17.724Z,21.37
2023-05-05T17:07:44.594Z,21.22
2023-05-05T17:10:11.136Z,21.07
2023-05-05T17:12:37.768Z,20.99
2023-05-05T17:15:04.784Z,20.64
2023-05-05T17:17:31.370Z,20.75
2023-05-05T17:19:57.959Z,20.84
2023-05-05T17:22:24.553Z,20.85
2023-05-05T17:24:51.070Z,20.72
2023-05-05T17:27:17.693Z,20.24
2023-05-05T17:29:44.262Z,20.41
2023-05-05T17:32:11.020Z,20.29
2023-05-05T17:34:37.787Z,20.23
2023-05-05T17:37:04.721Z,20.48
2023-05-05T17:39:31.356Z,20.43
2023-05-05T17:41:57.862Z,20.46
2023-05-05T17:44:24.444Z,20.44
2023-05-05T17:46:51.297Z,20.33
2023-05-05T17:49:17.933Z,20.62
2023-05-05T17:51:44.572Z,20.90
2023-05-05T17:54:11.630Z,20.70
2023-05-05T17:56:38.412Z,20.79
2023-05-05T17:59:05.051Z,20.72
2023-05-05T18:01:31.763Z,20.93
2023-05-05T18:03:58.466Z,20.77
2023-05-05T18:06:25.715Z,20.39
2023-05-05T18:08:52.588Z,20.18
2023-05-05T18:11:21.187Z,19.58
2023-05-05T18:13:47.775Z,19.49
2023-05-05T18:16:14.361Z,19.17
2023-05-05T18:18:41.316Z,18.79
2023-05-05T18:21:12.257Z,18.70
2023-05-05T18:23:42.009Z,18.68
2023-05-05T18:26:08.849Z,18.44
2023-05-05T18:28:36.727Z,18.01
2023-05-05T18:31:03.505Z,17.79
2023-05-05T18:33:30.119Z,17.58
2023-05-05T18:35:57.771Z,17.89
2023-05-05T18:38:24.470Z,17.70
2023-05-05T18:40:51.012Z,17.48
2023-05-05T18:43:17.574Z,17.34
2023-05-05T18:45:44.147Z,17.10
2023-05-05T18:48:11.669Z,17.24
2023-05-05T18:50:38.273Z,17.13
2023-05-05T18:53:04.844Z,16.98
2023-05-05T18:55:31.490Z,16.95
2023-05-05T18:57:58.392Z,16.87
2023-05-05T19:00:25.238Z,16.84
2023-05-05T19:02:51.955Z,16.77
2023-05-05T19:05:18.628Z,16.64
2023-05-05T19:07:45.584Z,16.52
2023-05-05T19:10:12.181Z,16.57
2023-05-05T19:12:38.930Z,16.99
2023-05-05T19:15:06.922Z,16.97
2023-05-05T19:17:33.925Z,16.77
2023-05-05T19:20:00.683Z,16.64
2023-05-05T19:22:27.347Z,16.44
2023-05-05T19:24:53.879Z,16.27
2023-05-05T19:27:20.510Z,16.08
2023-05-05T19:29:52.011Z,16.11
2023-05-05T19:32:21.592Z,16.11
2023-05-05T19:34:48.340Z,16.14
2023-05-05T19:37:14.985Z,15.93
2023-05-05T19:39:44.406Z,16.00
2023-05-05T19:42:11.191Z,16.19
2023-05-05T19:44:37.872Z,16.20
2023-05-05T19:47:04.746Z,15.95
2023-05-05T19:49:31.501Z,15.76
2023-05-05T19:51:59.400Z,15.46
2023-05-05T19:54:26.752Z,15.71
2023-05-05T19:56:55.218Z,15.71
2023-05-05T19:59:21.985Z,15.56
2023-05-05T20:01:48.653Z,15.58
2023-05-05T20:04:15.682Z,15.56
2023-05-05T20:06:42.193Z,15.54
2023-05-05T20:09:08.867Z,15.45
2023-05-05T20:11:35.757Z,15.59
2023-05-05T20:14:02.365Z,15.55
2023-05-05T20:16:29.095Z,15.70
2023-05-05T20:18:56.041Z,15.78
2023-05-05T20:21:22.666Z,15.66
2023-05-05T20:23:49.330Z,15.88
2023-05-05T20:26:16.046Z,15.79
2023-05-05T20:28:45.217Z,15.89
2023-05-05T20:31:14.998Z,15.96
2023-05-05T20:33:41.644Z,15.99
2023-05-05T20:36:08.461Z,16.03
2023-05-05T20:38:35.111Z,16.07
2023-05-05T20:41:01.752Z,15.94
2023-05-05T20:43:28.506Z,15.98
2023-05-05T20:45:55.162Z,16.39
2023-05-05T20:48:21.883Z,16.29
2023-05-05T20:50:48.492Z,16.45
2023-05-05T20:53:18.870Z,16.31
2023-05-05T20:55:45.666Z,16.20
2023-05-05T20:58:12.630Z,16.30
2023-05-05T21:00:39.336Z,16.37
2023-05-05T21:03:06.143Z,16.45
2023-05-05T21:05:32.792Z,16.55
2023-05-05T21:08:01.192Z,16.45
2023-05-05T21:10:29.047Z,16.41
2023-05-05T21:12:55.993Z,16.37
2023-05-05T21:15:22.745Z,16.52
2023-05-05T21:17:49.368Z,16.43
2023-05-05T21:20:16.495Z,16.30
2023-05-05T21:22:43.105Z,16.04
2023-05-05T21:25:21.019Z,16.34
2023-05-05T21:27:48.514Z,16.41
2023-05-05T21:30:15.693Z,16.27
2023-05-05T21:32:42.845Z,15.97
2023-05-05T21:35:10.161Z,16.20
2023-05-05T21:37:38.824Z,16.23
2023-05-05T21:40:10.847Z,16.23
2023-05-05T21:42:37.715Z,16.30
2023-05-05T21:45:04.613Z,16.19
2023-05-05T21:47:31.300Z,16.26
2023-05-05T21:49:58.874Z,16.28
2023-05-05T21:52:25.527Z,16.31
2023-05-05T21:54:52.274Z,16.31
2023-05-05T21:57:18.909Z,16.27
2023-05-05T21:59:45.674Z,16.23
2023-05-05T22:02:12.308Z,16.23
2023-05-05T22:04:38.942Z,16.34
2023-05-05T22:07:05.921Z,16.33
2023-05-05T22:09:32.547Z,16.22
2023-05-05T22:11:59.149Z,16.23
2023-05-05T22:14:25.723Z,16.33
2023-05-05T22:16:52.310Z,16.14
2023-05-05T22:19:18.814Z,16.26
2023-05-05T22:21:45.357Z,16.14
2023-05-05T22:24:12.034Z,16.31
2023-05-05T22:26:42.993Z,16.26
2023-05-05T22:29:10.819Z,16.27
2023-05-05T22:31:37.605Z,16.37
2023-05-05T22:34:04.397Z,16.37
2023-05-05T22:36:31.474Z,16.52
2023-05-05T22:38:57.987Z,16.45
2023-05-05T22:41:24.787Z,16.34
2023-05-05T22:43:51.377Z,16.16
2023-05-05T22:46:17.964Z,16.27
2023-05-05T22:48:44.485Z,16.24
2023-05-05T22:51:11.364Z,15.88
2023-05-05T22:53:38.652Z,15.81
2023-05-05T22:56:06.284Z,15.60
2023-05-05T22:58:32.808Z,15.56
2023-05-05T23:00:59.634Z,15.73
2023-05-05T23:03:26.299Z,15.86
2023-05-05T23:05:52.934Z,16.06
2023-05-05T23:08:20.515Z,16.14
2023-05-05T23:10:47.108Z,16.34
2023-05-05T23:13:13.877Z,16.13
2023-05-05T23:15:41.201Z,16.08
2023-05-05T23:18:07.877Z,15.96
2023-05-05T23:20:34.538Z,15.84
2023-05-05T23:23:01.280Z,15.74
2023-05-05T23:25:27.832Z,15.83
2023-05-05T23:27:54.582Z,15.78
2023-05-05T23:30:21.288Z,15.78
2023-05-05T23:32:47.972Z,15.76
2023-05-05T23:35:14.571Z,15.73
2023-05-05T23:37:41.288Z,15.84
2023-05-05T23:40:08.785Z,15.95
2023-05-05T23:42:35.444Z,15.82
2023-05-05T23:45:02.014Z,15.86
2023-05-05T23:47:28.614Z,15.81
2023-05-05T23:49:55.268Z,15.63
2023-05-05T23:52:22.557Z,15.39
2023-05-05T23:54:49.120Z,15.43
2023-05-05T23:57:16.083Z,15.29
2023-05-05T23:59:42.678Z,15.09
